Wilsonia, California
Current Conditions -  °F | °C
As of 8:56 PM on Wednesday 26 Nov 2014 (Local Time) from KBIH Reporting Station
Clear Clear  
Wind Chill:   Ceiling: Unl
Heat Index:   Visibility: 10mi
Dew Point: -9°   Wind: 6mph
Humidity: 41%   Direction: 310°NW
Pressure: 30.36"   Gusts: NA
Location:  36.7872°N, 118.66°W
Report Text: KBIH 270456Z AUTO 31005KT 10SM CLR 03/M09 A3036 RMK AO2 SLP273 T00331089
Loading
Personal Weather Stations






























Interactive Weather Map New forecast layout! Learn more

10-Day Weather Forecast

Advertisements
Track Severe Weather on mobile